createdAt,value
2019-03-31T00:02:13.619Z,1.00
2019-03-31T00:04:44.087Z,1.00
2019-03-31T00:07:14.758Z,0.90
2019-03-31T00:09:45.174Z,0.90
2019-03-31T00:12:15.170Z,0.90
2019-03-31T00:14:45.253Z,0.90
2019-03-31T00:17:15.417Z,0.90
2019-03-31T00:19:45.698Z,0.80
2019-03-31T00:22:15.591Z,0.80
2019-03-31T00:24:46.705Z,0.80
2019-03-31T00:27:16.840Z,0.70
2019-03-31T00:29:47.035Z,0.70
2019-03-31T00:32:17.251Z,0.70
2019-03-31T00:34:47.330Z,0.70
2019-03-31T00:37:17.491Z,0.60
2019-03-31T00:39:47.653Z,0.60
2019-03-31T00:42:17.896Z,0.60
2019-03-31T00:44:48.135Z,0.70
2019-03-31T00:47:18.519Z,0.60
2019-03-31T00:49:48.744Z,0.60
2019-03-31T00:52:18.772Z,0.60
2019-03-31T00:54:49.052Z,0.60
2019-03-31T00:57:19.345Z,0.60
2019-03-31T00:59:49.393Z,0.60
2019-03-31T01:02:22.954Z,0.60
2019-03-31T01:04:53.193Z,0.50
2019-03-31T01:07:26.696Z,0.40
2019-03-31T01:09:58.268Z,0.40
2019-03-31T01:12:28.935Z,0.50
2019-03-31T01:14:59.190Z,0.40
2019-03-31T01:17:29.403Z,0.40
2019-03-31T01:20:00.148Z,0.30
2019-03-31T01:22:30.327Z,0.30
2019-03-31T01:25:00.574Z,0.30
2019-03-31T01:27:30.858Z,0.20
2019-03-31T01:30:01.244Z,0.20
2019-03-31T01:32:31.450Z,0.20
2019-03-31T01:35:01.555Z,0.10
2019-03-31T01:37:31.907Z,0.20
2019-03-31T01:40:01.898Z,0.10
2019-03-31T01:42:31.978Z,0.10
2019-03-31T01:45:02.003Z,0.10
2019-03-31T01:47:32.048Z,0.10
2019-03-31T01:50:02.302Z,0.10
2019-03-31T01:52:32.250Z,0.00
2019-03-31T01:55:02.259Z,0.00
2019-03-31T01:57:32.170Z,0.00
2019-03-31T02:00:02.143Z,0.00
2019-03-31T02:02:32.352Z,-0.10
2019-03-31T02:05:02.734Z,-0.10
2019-03-31T02:07:32.832Z,-0.10
2019-03-31T02:10:04.018Z,-0.20
2019-03-31T02:12:34.018Z,-0.20
2019-03-31T02:15:05.619Z,-0.20
2019-03-31T02:17:35.791Z,-0.20
2019-03-31T02:20:07.059Z,-0.20
2019-03-31T02:22:36.914Z,-0.20
2019-03-31T02:25:06.990Z,-0.20
2019-03-31T02:27:37.243Z,-0.20
2019-03-31T02:30:08.790Z,-0.20
2019-03-31T02:32:39.063Z,-0.20
2019-03-31T02:35:09.240Z,-0.30
2019-03-31T02:37:39.625Z,-0.30
2019-03-31T02:40:09.678Z,-0.40
2019-03-31T02:42:39.758Z,-0.50
2019-03-31T02:45:10.126Z,-0.50
2019-03-31T02:47:40.196Z,-0.40
2019-03-31T02:50:11.924Z,-0.40
2019-03-31T02:52:41.824Z,-0.30
2019-03-31T02:55:12.198Z,-0.40
2019-03-31T02:57:43.077Z,-0.40
2019-03-31T03:00:13.303Z,-0.50
2019-03-31T03:02:43.308Z,-0.50
2019-03-31T03:05:19.673Z,-0.40
2019-03-31T03:08:04.367Z,-0.50
2019-03-31T03:10:35.979Z,-0.50
2019-03-31T03:13:09.337Z,-0.50
2019-03-31T03:15:47.436Z,-0.60
2019-03-31T03:18:17.370Z,-0.70
2019-03-31T03:20:47.448Z,-0.70
2019-03-31T03:23:17.403Z,-0.70
2019-03-31T03:25:55.958Z,-0.60
2019-03-31T03:28:19.081Z,-0.60
2019-03-31T03:30:49.352Z,-0.60
2019-03-31T03:33:19.702Z,-0.70
2019-03-31T03:35:50.030Z,-0.70
2019-03-31T03:38:20.148Z,-0.70
2019-03-31T03:40:50.362Z,-0.70
2019-03-31T03:43:20.439Z,-0.80
2019-03-31T03:45:50.520Z,-0.80
2019-03-31T03:48:20.718Z,-0.80
2019-03-31T03:50:50.751Z,-0.90
2019-03-31T03:53:20.850Z,-0.90
2019-03-31T03:55:50.804Z,-0.90
2019-03-31T03:58:20.955Z,-0.90
2019-03-31T04:00:51.252Z,-0.90
2019-03-31T04:03:30.246Z,-0.90
2019-03-31T04:05:53.381Z,-0.90
2019-03-31T04:08:23.778Z,-0.90
2019-03-31T04:11:25.773Z,-0.90
2019-03-31T04:13:55.831Z,-0.90
2019-03-31T04:16:26.720Z,-1.00
2019-03-31T04:18:56.634Z,-1.00
2019-03-31T04:21:27.265Z,-1.10
2019-03-31T04:23:57.655Z,-1.10
2019-03-31T04:26:27.890Z,-1.20
2019-03-31T04:28:58.257Z,-1.20
2019-03-31T04:31:28.206Z,-1.20
2019-03-31T04:33:58.144Z,-1.30
2019-03-31T04:36:28.182Z,-1.30
2019-03-31T04:39:00.324Z,-1.30
2019-03-31T04:41:30.346Z,-1.30
2019-03-31T04:44:00.571Z,-1.20
2019-03-31T04:46:30.590Z,-1.30
2019-03-31T04:49:00.626Z,-1.30
2019-03-31T04:51:30.985Z,-1.20
2019-03-31T04:54:01.129Z,-1.30
2019-03-31T04:56:31.355Z,-1.30
2019-03-31T04:59:01.647Z,-1.30
2019-03-31T05:01:31.643Z,-1.40
2019-03-31T05:04:05.047Z,-1.40
2019-03-31T05:06:33.521Z,-1.40
2019-03-31T05:09:05.119Z,-1.30
2019-03-31T05:11:35.190Z,-1.30
2019-03-31T05:14:05.193Z,-1.20
2019-03-31T05:16:35.357Z,-1.20
2019-03-31T05:19:05.707Z,-1.30
2019-03-31T05:21:35.947Z,-1.20
2019-03-31T05:24:05.912Z,-1.30
2019-03-31T05:26:36.013Z,-1.30
2019-03-31T05:29:05.930Z,-1.30
2019-03-31T05:31:36.044Z,-1.30
2019-03-31T05:34:18.553Z,-1.30
2019-03-31T05:36:37.942Z,-1.20
2019-03-31T05:39:08.490Z,-1.20
2019-03-31T05:41:38.655Z,-1.20
2019-03-31T05:44:09.080Z,-1.10
2019-03-31T05:46:38.979Z,-1.10
2019-03-31T05:49:08.927Z,-1.10
2019-03-31T05:51:39.057Z,-1.10
2019-03-31T05:54:09.302Z,-1.00
2019-03-31T05:56:39.359Z,-0.90
2019-03-31T05:59:09.278Z,-0.90
2019-03-31T06:01:39.272Z,-0.80
2019-03-31T06:04:09.350Z,-0.70
2019-03-31T06:06:39.566Z,-0.70
2019-03-31T06:09:09.582Z,-0.60
2019-03-31T06:11:39.875Z,-0.50
2019-03-31T06:14:10.136Z,-0.40
2019-03-31T06:16:40.192Z,-0.30
2019-03-31T06:19:10.258Z,-0.20
2019-03-31T06:21:40.303Z,-0.10
2019-03-31T06:24:10.848Z,0.00
2019-03-31T06:26:40.765Z,0.00
2019-03-31T06:29:10.908Z,0.20
2019-03-31T06:31:41.212Z,0.30
2019-03-31T06:34:11.415Z,0.40
2019-03-31T06:36:41.485Z,0.50
2019-03-31T06:39:11.443Z,0.70
2019-03-31T06:41:41.419Z,0.80
2019-03-31T06:44:11.508Z,1.00
2019-03-31T06:46:41.506Z,1.10
2019-03-31T06:49:11.539Z,1.30
2019-03-31T06:51:41.621Z,1.50
2019-03-31T06:54:11.917Z,1.60
2019-03-31T06:56:41.928Z,1.70
2019-03-31T06:59:12.297Z,1.80
2019-03-31T07:01:42.619Z,2.00
2019-03-31T07:04:13.612Z,2.20
2019-03-31T07:06:43.679Z,2.30
2019-03-31T07:09:13.601Z,2.50
2019-03-31T07:11:43.785Z,2.60
2019-03-31T07:14:14.244Z,2.80
2019-03-31T07:16:44.310Z,3.00
2019-03-31T07:19:14.569Z,3.20
2019-03-31T07:21:44.840Z,3.40
2019-03-31T07:24:14.958Z,3.60
2019-03-31T07:26:44.978Z,3.80
2019-03-31T07:29:15.597Z,3.90
2019-03-31T07:31:45.626Z,4.00
2019-03-31T07:34:15.925Z,4.20
2019-03-31T07:36:45.997Z,4.40
2019-03-31T07:39:16.543Z,4.40
2019-03-31T07:41:46.941Z,4.60
2019-03-31T07:44:17.064Z,4.80
2019-03-31T07:46:47.594Z,4.90
2019-03-31T07:49:17.991Z,5.10
2019-03-31T07:51:48.174Z,5.20
2019-03-31T07:54:18.144Z,5.40
2019-03-31T07:56:48.222Z,5.60
2019-03-31T07:59:18.778Z,5.80
2019-03-31T08:01:48.798Z,6.00
2019-03-31T08:04:19.049Z,6.10
2019-03-31T08:06:49.432Z,6.30
2019-03-31T08:09:20.799Z,6.40
2019-03-31T08:11:50.902Z,6.60
2019-03-31T08:14:21.036Z,6.70
2019-03-31T08:16:51.409Z,6.90
2019-03-31T08:19:21.573Z,7.00
2019-03-31T08:21:51.663Z,7.20
2019-03-31T08:24:22.126Z,7.40
2019-03-31T08:26:52.166Z,7.60
2019-03-31T08:29:22.419Z,7.70
2019-03-31T08:31:52.660Z,7.90
2019-03-31T08:34:22.782Z,8.10
2019-03-31T08:36:52.888Z,8.20
2019-03-31T08:39:23.268Z,8.40
2019-03-31T08:41:53.593Z,8.60
2019-03-31T08:44:23.836Z,8.90
2019-03-31T08:46:54.074Z,9.10
2019-03-31T08:49:24.253Z,9.30
2019-03-31T08:51:54.491Z,9.50
2019-03-31T08:54:24.528Z,9.70
2019-03-31T08:56:55.074Z,9.90
2019-03-31T08:59:25.195Z,10.10
2019-03-31T09:01:55.267Z,10.30
2019-03-31T09:04:25.535Z,10.50
2019-03-31T09:06:55.703Z,10.70
2019-03-31T09:09:25.956Z,10.90
2019-03-31T09:11:56.177Z,11.10
2019-03-31T09:14:26.430Z,11.30
2019-03-31T09:16:56.415Z,11.60
2019-03-31T09:19:26.737Z,11.80
2019-03-31T09:21:56.745Z,12.00
2019-03-31T09:24:27.110Z,12.30
2019-03-31T09:26:57.295Z,12.50
2019-03-31T09:29:27.359Z,12.70
2019-03-31T09:31:57.571Z,13.00
2019-03-31T09:34:27.872Z,13.20
2019-03-31T09:36:57.951Z,13.40
2019-03-31T09:39:28.095Z,13.70
2019-03-31T09:41:58.428Z,13.90
2019-03-31T09:44:30.263Z,14.10
2019-03-31T09:47:01.032Z,14.30
2019-03-31T09:49:31.128Z,14.60
2019-03-31T09:52:01.511Z,14.70
2019-03-31T09:54:31.576Z,14.90
2019-03-31T09:57:01.854Z,15.00
2019-03-31T09:59:32.126Z,15.20
2019-03-31T10:02:02.288Z,15.30
2019-03-31T10:04:32.373Z,15.40
2019-03-31T10:07:02.805Z,15.50
2019-03-31T10:09:33.391Z,15.70
2019-03-31T10:12:03.749Z,15.80
2019-03-31T10:14:34.081Z,16.00
2019-03-31T10:17:04.183Z,16.20
2019-03-31T10:19:34.322Z,16.40
2019-03-31T10:22:04.616Z,16.70
2019-03-31T10:24:35.689Z,16.90
2019-03-31T10:27:05.612Z,17.20
2019-03-31T10:29:35.827Z,17.30
2019-03-31T10:32:05.962Z,17.40
2019-03-31T10:34:36.029Z,17.60
2019-03-31T10:37:06.252Z,17.70
2019-03-31T10:39:36.703Z,17.80
2019-03-31T10:42:06.957Z,18.00
2019-03-31T10:44:37.157Z,18.10
2019-03-31T10:47:07.316Z,18.30
2019-03-31T10:49:37.460Z,18.50
2019-03-31T10:52:07.649Z,18.50
2019-03-31T10:54:37.832Z,18.70
2019-03-31T10:57:08.205Z,18.50
2019-03-31T10:59:38.296Z,18.50
2019-03-31T11:02:08.441Z,18.30
2019-03-31T11:04:38.926Z,18.00
2019-03-31T11:07:09.066Z,17.70
2019-03-31T11:09:39.242Z,17.50
2019-03-31T11:12:09.496Z,17.30
2019-03-31T11:14:39.593Z,17.20
2019-03-31T11:17:09.828Z,17.00
2019-03-31T11:19:40.060Z,17.00
2019-03-31T11:22:24.105Z,17.00
2019-03-31T11:24:54.133Z,16.90
2019-03-31T11:27:24.441Z,16.80
2019-03-31T11:29:54.400Z,16.80
2019-03-31T11:32:24.481Z,16.60
2019-03-31T11:34:57.975Z,16.60
2019-03-31T11:37:28.280Z,16.70
2019-03-31T11:39:58.309Z,17.00
2019-03-31T11:42:28.394Z,17.20
2019-03-31T11:44:58.916Z,17.20
2019-03-31T11:47:29.154Z,17.10
2019-03-31T11:49:59.275Z,16.80
2019-03-31T11:52:29.646Z,16.70
2019-03-31T11:54:59.914Z,16.40
2019-03-31T11:57:29.939Z,16.30
2019-03-31T12:00:00.448Z,16.20
2019-03-31T12:02:30.500Z,16.40
2019-03-31T12:05:00.534Z,16.40
2019-03-31T12:07:30.799Z,16.20
2019-03-31T12:10:00.782Z,16.10
2019-03-31T12:12:31.159Z,16.10
2019-03-31T12:15:01.486Z,16.00
2019-03-31T12:17:31.686Z,16.20
2019-03-31T12:20:01.924Z,16.20
2019-03-31T12:22:32.131Z,16.20
2019-03-31T12:25:02.177Z,16.40
2019-03-31T12:27:32.476Z,16.90
2019-03-31T12:30:02.655Z,17.40
2019-03-31T12:32:38.144Z,17.70
2019-03-31T12:35:07.915Z,17.70
2019-03-31T12:37:42.655Z,18.10
2019-03-31T12:40:15.459Z,18.50
2019-03-31T12:42:45.829Z,18.60
2019-03-31T12:45:15.875Z,18.80
2019-03-31T12:47:45.915Z,19.20
2019-03-31T12:50:15.934Z,19.50
2019-03-31T12:52:49.452Z,19.90
2019-03-31T12:55:17.953Z,19.70
2019-03-31T12:57:51.532Z,20.00
2019-03-31T13:00:20.189Z,20.00
2019-03-31T13:02:50.246Z,20.20
2019-03-31T13:05:20.619Z,20.40
2019-03-31T13:07:56.508Z,20.30
2019-03-31T13:10:22.823Z,19.90
2019-03-31T13:12:53.128Z,19.40
2019-03-31T13:15:23.228Z,18.90
2019-03-31T13:17:53.347Z,18.80
2019-03-31T13:20:23.677Z,18.80
2019-03-31T13:22:53.691Z,18.90
2019-03-31T13:25:23.900Z,18.90
2019-03-31T13:27:54.247Z,18.70
2019-03-31T13:30:24.564Z,18.70
2019-03-31T13:32:54.531Z,18.90
2019-03-31T13:35:24.905Z,18.80
2019-03-31T13:37:54.816Z,18.90
2019-03-31T13:40:25.180Z,18.90
2019-03-31T13:42:55.436Z,18.90
2019-03-31T13:45:25.417Z,18.70
2019-03-31T13:47:58.505Z,18.80
2019-03-31T13:50:27.527Z,18.70
2019-03-31T13:52:57.655Z,18.60
2019-03-31T13:55:27.912Z,18.40
2019-03-31T13:57:58.504Z,18.40
2019-03-31T14:00:37.533Z,18.60
2019-03-31T14:03:08.579Z,18.70
2019-03-31T14:05:38.741Z,18.80
2019-03-31T14:08:09.037Z,18.90
2019-03-31T14:10:39.214Z,18.80
2019-03-31T14:13:09.356Z,18.90
2019-03-31T14:15:39.446Z,18.90
2019-03-31T14:18:09.643Z,19.00
2019-03-31T14:20:39.797Z,19.00
2019-03-31T14:23:09.953Z,19.20
2019-03-31T14:25:40.208Z,19.00
2019-03-31T14:28:10.337Z,18.90
2019-03-31T14:30:40.371Z,18.80
2019-03-31T14:33:10.797Z,18.70
2019-03-31T14:35:41.050Z,18.80
2019-03-31T14:38:11.246Z,18.90
2019-03-31T14:40:41.516Z,19.00
2019-03-31T14:43:11.749Z,19.20
2019-03-31T14:45:42.112Z,19.10
2019-03-31T14:48:12.566Z,18.90
2019-03-31T14:50:42.764Z,18.90
2019-03-31T14:53:13.073Z,19.00
2019-03-31T14:55:43.160Z,19.00
2019-03-31T14:58:13.272Z,19.00
2019-03-31T15:00:43.726Z,19.30
2019-03-31T15:03:13.886Z,19.40
2019-03-31T15:05:44.067Z,19.60
2019-03-31T15:08:14.301Z,19.80
2019-03-31T15:10:44.951Z,19.70
2019-03-31T15:13:15.383Z,19.70
2019-03-31T15:15:45.512Z,20.00
2019-03-31T15:18:15.852Z,19.90
2019-03-31T15:20:46.159Z,19.70
2019-03-31T15:23:16.483Z,19.50
2019-03-31T15:25:47.049Z,19.40
2019-03-31T15:28:17.558Z,19.40
2019-03-31T15:30:48.082Z,19.50
2019-03-31T15:33:18.983Z,19.60
2019-03-31T15:35:49.265Z,20.00
2019-03-31T15:38:19.571Z,20.20
2019-03-31T15:40:49.645Z,20.30
2019-03-31T15:43:20.027Z,20.70
2019-03-31T15:45:50.240Z,21.80
2019-03-31T15:48:20.569Z,22.70
2019-03-31T15:50:50.821Z,22.90
2019-03-31T15:53:21.370Z,23.80
2019-03-31T15:55:51.712Z,24.50
2019-03-31T15:58:21.774Z,24.90
2019-03-31T16:00:52.043Z,24.90
2019-03-31T16:03:22.453Z,25.30
2019-03-31T16:05:52.741Z,24.80
2019-03-31T16:08:22.523Z,24.30
2019-03-31T16:10:52.029Z,24.10
2019-03-31T16:13:22.342Z,24.00
2019-03-31T16:15:52.215Z,24.20
2019-03-31T16:18:21.723Z,24.20
2019-03-31T16:20:51.319Z,24.50
2019-03-31T16:23:20.929Z,24.80
2019-03-31T16:25:54.110Z,24.90
2019-03-31T16:28:23.810Z,24.90
2019-03-31T16:30:53.840Z,25.10
2019-03-31T16:33:23.489Z,24.90
2019-03-31T16:35:53.225Z,25.20
2019-03-31T16:38:25.586Z,26.20
2019-03-31T16:40:54.038Z,26.20
2019-03-31T16:43:23.745Z,26.10
2019-03-31T16:45:53.335Z,25.70
2019-03-31T16:48:22.990Z,24.20
2019-03-31T16:50:52.568Z,22.80
2019-03-31T16:53:22.484Z,21.60
2019-03-31T16:55:52.345Z,20.50
2019-03-31T16:58:21.976Z,19.70
2019-03-31T17:00:51.709Z,19.10
2019-03-31T17:03:21.400Z,18.80
2019-03-31T17:05:51.399Z,18.30
2019-03-31T17:08:21.029Z,17.80
2019-03-31T17:10:50.477Z,17.40
2019-03-31T17:13:20.005Z,17.30
2019-03-31T17:15:49.785Z,17.00
2019-03-31T17:18:20.058Z,16.90
2019-03-31T17:20:49.837Z,16.70
2019-03-31T17:23:22.134Z,16.40
2019-03-31T17:25:51.833Z,16.20
2019-03-31T17:28:21.655Z,16.00
2019-03-31T17:30:51.681Z,15.80
2019-03-31T17:33:21.942Z,15.60
2019-03-31T17:35:52.177Z,15.30
2019-03-31T17:38:22.417Z,14.90
2019-03-31T17:40:52.593Z,14.50
2019-03-31T17:43:22.636Z,14.00
2019-03-31T17:45:52.380Z,13.70
2019-03-31T17:48:22.242Z,13.30
2019-03-31T17:50:52.296Z,12.90
2019-03-31T17:53:21.971Z,12.60
2019-03-31T17:55:52.030Z,12.20
2019-03-31T17:58:21.873Z,11.90
2019-03-31T18:00:52.006Z,11.60
2019-03-31T18:03:21.870Z,11.40
2019-03-31T18:05:52.158Z,11.10
2019-03-31T18:08:21.822Z,10.90
2019-03-31T18:10:51.994Z,10.70
2019-03-31T18:13:21.965Z,10.50
2019-03-31T18:15:51.978Z,10.30
2019-03-31T18:18:21.749Z,10.20
2019-03-31T18:20:51.450Z,10.00
2019-03-31T18:23:21.214Z,9.70
2019-03-31T18:25:50.858Z,9.70
2019-03-31T18:28:20.804Z,9.50
2019-03-31T18:30:50.469Z,9.30
2019-03-31T18:33:20.196Z,9.20
2019-03-31T18:35:50.216Z,9.10
2019-03-31T18:38:20.005Z,9.00
2019-03-31T18:40:49.746Z,8.80
2019-03-31T18:43:19.800Z,8.70
2019-03-31T18:45:49.391Z,8.50
2019-03-31T18:48:19.245Z,8.40
2019-03-31T18:50:49.201Z,8.40
2019-03-31T18:53:32.470Z,8.40
2019-03-31T18:56:11.676Z,8.30
2019-03-31T18:59:18.940Z,8.20
2019-03-31T19:02:03.559Z,8.10
2019-03-31T19:04:56.222Z,8.00
2019-03-31T19:07:43.619Z,7.90
2019-03-31T19:10:49.697Z,7.80
2019-03-31T19:13:54.861Z,7.70
2019-03-31T19:16:30.622Z,7.60
2019-03-31T19:19:10.967Z,7.50
2019-03-31T19:21:47.957Z,7.40
2019-03-31T19:24:41.820Z,7.40
2019-03-31T19:27:33.965Z,7.20
2019-03-31T19:30:21.468Z,7.20
2019-03-31T19:32:56.078Z,7.10
2019-03-31T19:35:53.738Z,7.10
2019-03-31T19:38:48.225Z,7.00
2019-03-31T19:41:39.908Z,6.90
2019-03-31T19:44:32.277Z,6.80
2019-03-31T19:47:24.215Z,6.60
2019-03-31T19:50:13.408Z,6.60
2019-03-31T19:53:05.722Z,6.60
2019-03-31T19:55:46.747Z,6.60
2019-03-31T19:58:31.272Z,6.70
2019-03-31T20:01:21.226Z,6.60
2019-03-31T20:04:28.293Z,6.60
2019-03-31T20:07:07.049Z,6.50
2019-03-31T20:09:59.236Z,6.50
2019-03-31T20:12:38.738Z,6.50
2019-03-31T20:15:32.687Z,6.40
2019-03-31T20:18:30.633Z,6.40
2019-03-31T20:21:12.914Z,6.30
2019-03-31T20:23:54.196Z,6.30
2019-03-31T20:26:51.939Z,6.30
2019-03-31T20:29:50.679Z,6.30
2019-03-31T20:32:51.490Z,6.20
2019-03-31T20:35:46.402Z,6.20
2019-03-31T20:38:22.810Z,6.30
2019-03-31T20:41:11.509Z,6.20
2019-03-31T20:43:57.712Z,6.30
2019-03-31T20:46:27.253Z,6.40
2019-03-31T20:48:56.755Z,6.50
2019-03-31T20:51:26.443Z,6.50
2019-03-31T20:53:55.926Z,6.50
2019-03-31T20:56:25.892Z,6.60
2019-03-31T20:58:55.586Z,6.50
2019-03-31T21:01:25.290Z,6.50
2019-03-31T21:03:55.020Z,6.40
2019-03-31T21:06:24.876Z,6.40
2019-03-31T21:08:54.551Z,6.40
2019-03-31T21:11:24.175Z,6.40
2019-03-31T21:13:56.774Z,6.40
2019-03-31T21:16:25.203Z,6.50
2019-03-31T21:18:55.213Z,6.50
2019-03-31T21:21:24.987Z,6.70
2019-03-31T21:23:54.712Z,6.80
2019-03-31T21:26:24.370Z,6.90
2019-03-31T21:28:53.920Z,7.00
2019-03-31T21:31:23.433Z,7.00
2019-03-31T21:33:53.041Z,7.10
2019-03-31T21:36:22.586Z,7.20
2019-03-31T21:38:52.067Z,7.50
2019-03-31T21:41:21.620Z,7.60
2019-03-31T21:43:51.155Z,7.70
2019-03-31T21:46:20.658Z,7.70
2019-03-31T21:48:52.785Z,7.70
2019-03-31T21:51:22.194Z,7.60
2019-03-31T21:53:51.625Z,7.70
2019-03-31T21:56:20.990Z,7.70
2019-03-31T21:58:50.532Z,7.60
2019-03-31T22:01:19.916Z,7.60
2019-03-31T22:03:49.588Z,7.60
2019-03-31T22:06:19.067Z,7.80
2019-03-31T22:08:48.759Z,8.10
2019-03-31T22:11:18.111Z,8.30
2019-03-31T22:13:47.875Z,8.30
2019-03-31T22:16:17.526Z,8.20
2019-03-31T22:18:47.038Z,8.20
2019-03-31T22:21:16.380Z,8.10
2019-03-31T22:23:57.350Z,8.10
2019-03-31T22:26:19.643Z,8.10
2019-03-31T22:28:49.812Z,8.10
2019-03-31T22:31:19.430Z,8.00
2019-03-31T22:33:48.999Z,8.00
2019-03-31T22:36:21.346Z,7.90
2019-03-31T22:38:52.100Z,7.60
2019-03-31T22:41:21.706Z,7.40
2019-03-31T22:43:51.247Z,7.20
2019-03-31T22:46:20.722Z,7.10
2019-03-31T22:48:50.167Z,7.00
2019-03-31T22:51:19.597Z,6.80
2019-03-31T22:53:49.170Z,6.70
2019-03-31T22:56:18.774Z,6.60
2019-03-31T22:58:48.206Z,6.60
2019-03-31T23:01:17.954Z,6.40
2019-03-31T23:03:47.471Z,6.40
2019-03-31T23:06:16.929Z,6.30
2019-03-31T23:08:46.525Z,6.30
2019-03-31T23:11:16.227Z,6.20
2019-03-31T23:13:45.579Z,6.20
2019-03-31T23:16:15.028Z,6.30
2019-03-31T23:18:44.604Z,6.20
2019-03-31T23:21:16.443Z,6.30
2019-03-31T23:23:45.822Z,6.20
2019-03-31T23:26:15.324Z,6.10
2019-03-31T23:28:47.652Z,5.90
2019-03-31T23:31:17.822Z,5.70
2019-03-31T23:33:47.329Z,5.70
2019-03-31T23:36:16.846Z,5.30
2019-03-31T23:38:46.201Z,5.00
2019-03-31T23:41:15.673Z,4.90
2019-03-31T23:43:45.051Z,4.80
2019-03-31T23:46:14.571Z,4.70
2019-03-31T23:48:44.246Z,4.70
2019-03-31T23:51:14.057Z,4.50
2019-03-31T23:53:43.511Z,4.30
2019-03-31T23:56:12.983Z,4.20
2019-03-31T23:58:42.372Z,4.10
